Rockford, Washington
Current Conditions -  °F | °C
As of 11:58 PM on Monday 26 Jan 2015 (Local Time) from KSFF Reporting Station
Haze Haze  
Wind Chill: 35°   Ceiling: Unl
Heat Index: 35°   Visibility: 3mi
Dew Point: 32°   Wind: 3mph
Humidity: 89%   Direction: 50°NE
Pressure: 30.01"   Gusts: NA
Location:  47.45°N, 117.13°W
Report Text: KSFF 270758Z AUTO 05003KT 3SM BR SCT002 02/00 A3001 RMK AO2 T00170000
Loading
Personal Weather Stations






























Interactive Weather Map New forecast layout! Learn more

10-Day Weather Forecast

Advertisements
Track Severe Weather on mobile